PWSweather.com
Personal Weather Stations
Station Observations
KMIEASTT1
Tawas Bay, East Tawas, MI 48730

Tawas BayEast Tawas, MI 48730

Lat: 44.28, Lon: -83.48

Elevation: 600

Station Type: Davis VantagePro

http://www.tawasbayweather.com

Latest ConditionsUpdated 8:30:11 PM EDT Sunday, Mar 26, 2017
Currently Today's Max Today's Min Today's Average
Temperature 39.2°F4.0°C 39.7°F4.3°C 35.0°F1.7°C 37.2°F2.9°C
Dew Point 38.2°F3.4°C 38.9°F3.8°C 33.7°F0.9°C 35.8°F2.1°C
Winds Calm Calm 13.0 mph E20.9 kmh E - 2.6 mph 4.2 kmh
Wind Gusts -- 14.0 mph22.5 kmh - -
Humidity 96% 97% 88% 94%
Pressure 29.93 in1013.5 mb 30.30 in1026.1 mb 29.93 in1013.5 mb -
Hour Temp Dew Point Humidity Winds Wind Gusts Pressure Precip Precip Rate Daily Precip Total
08:30 PM 39.2°F4.0°C 38.2°F3.4°C 96% Calm Calm -- 29.93 in1013.5 mb 0.00 in0.0 mm 0.00 in0.0 mm 0.63 in16.0 mm
08:15 PM 39.3°F4.1°C 38.5°F3.6°C 97% 1.0 mph NE1.6 kmh NE 1.0 mph1.6 kmh 29.93 in1013.5 mb 0.00 in0.0 mm 0.00 in0.0 mm 0.63 in16.0 mm
08:00 PM 39.6°F4.2°C 38.6°F3.7°C 96% Calm Calm -- 29.93 in1013.5 mb 0.01 in0.3 mm 0.00 in0.0 mm 0.63 in16.0 mm
07:45 PM 39.7°F4.3°C 38.9°F3.8°C 97% Calm Calm 1.0 mph1.6 kmh 29.93 in1013.5 mb 0.01 in0.3 mm 0.00 in0.0 mm 0.63 in16.0 mm
07:30 PM 39.6°F4.2°C 38.8°F3.8°C 97% Calm Calm 1.0 mph1.6 kmh 29.93 in1013.5 mb 0.03 in0.8 mm 0.00 in0.0 mm 0.63 in16.0 mm
07:15 PM 39.5°F4.2°C 38.7°F3.7°C 97% Calm Calm -- 29.94 in1013.9 mb 0.03 in0.8 mm 0.00 in0.0 mm 0.63 in16.0 mm
07:00 PM 39.1°F3.9°C 38.3°F3.5°C 97% Calm Calm 2.0 mph3.2 kmh 29.94 in1013.9 mb 0.04 in1.0 mm 0.01 in0.3 mm 0.63 in16.0 mm
06:45 PM 38.9°F3.8°C 38.1°F3.4°C 97% 2.0 mph ENE3.2 kmh ENE 2.0 mph3.2 kmh 29.94 in1013.9 mb 0.03 in0.8 mm 0.00 in0.0 mm 0.62 in15.7 mm
06:30 PM 38.6°F3.7°C 37.8°F3.2°C 97% Calm Calm 3.0 mph4.8 kmh 29.95 in1014.2 mb 0.03 in0.8 mm 0.04 in1.0 mm 0.62 in15.7 mm
06:15 PM 38.7°F3.7°C 37.9°F3.3°C 97% Calm Calm 3.0 mph4.8 kmh 29.94 in1013.9 mb 0.02 in0.5 mm 0.00 in0.0 mm 0.61 in15.5 mm
06:00 PM 38.8°F3.8°C 38.0°F3.3°C 97% Calm Calm 5.0 mph8.0 kmh 29.94 in1013.9 mb 0.02 in0.5 mm 0.01 in0.3 mm 0.61 in15.5 mm
05:45 PM 38.5°F3.6°C 37.7°F3.2°C 97% 2.0 mph ENE3.2 kmh ENE 5.0 mph8.0 kmh 29.94 in1013.9 mb 0.01 in0.3 mm 0.00 in0.0 mm 0.60 in15.2 mm
05:30 PM 38.1°F3.4°C 37.3°F2.9°C 97% Calm Calm 3.0 mph4.8 kmh 29.95 in1014.2 mb 0.03 in0.8 mm 0.00 in0.0 mm 0.60 in15.2 mm
05:15 PM 38.2°F3.4°C 37.4°F3.0°C 97% 3.0 mph ENE4.8 kmh ENE 6.0 mph9.7 kmh 29.95 in1014.2 mb 0.03 in0.8 mm 0.00 in0.0 mm 0.60 in15.2 mm
05:00 PM 37.8°F3.2°C 36.8°F2.7°C 96% 4.0 mph NE6.4 kmh NE 8.0 mph12.9 kmh 29.94 in1013.9 mb 0.12 in3.0 mm 0.01 in0.3 mm 0.60 in15.2 mm
04:45 PM 38.2°F3.4°C 37.2°F2.9°C 96% 3.0 mph E4.8 kmh E 10.0 mph16.1 kmh 29.96 in1014.6 mb 0.11 in2.8 mm 0.00 in0.0 mm 0.59 in15.0 mm
04:30 PM 38.2°F3.4°C 37.2°F2.9°C 96% 2.0 mph ENE3.2 kmh ENE 7.0 mph11.3 kmh 29.96 in1014.6 mb 0.26 in6.6 mm 0.04 in1.0 mm 0.59 in15.0 mm
04:15 PM 38.5°F3.6°C 37.5°F3.1°C 96% 3.0 mph E4.8 kmh E 3.0 mph4.8 kmh 29.96 in1014.6 mb 0.25 in6.4 mm 0.00 in0.0 mm 0.58 in14.7 mm
04:00 PM 38.2°F3.4°C 37.2°F2.9°C 96% Calm Calm 4.0 mph6.4 kmh 29.96 in1014.6 mb 0.26 in6.6 mm 0.03 in0.8 mm 0.58 in14.7 mm
03:45 PM 37.9°F3.3°C 36.9°F2.7°C 96% 2.0 mph E3.2 kmh E 5.0 mph8.0 kmh 29.97 in1014.9 mb 0.24 in6.1 mm 0.24 in6.1 mm 0.56 in14.2 mm
03:30 PM 37.7°F3.2°C 36.7°F2.6°C 96% 1.0 mph NE1.6 kmh NE 4.0 mph6.4 kmh 29.99 in1015.6 mb 0.18 in4.6 mm 0.32 in8.1 mm 0.50 in12.7 mm
03:15 PM 37.6°F3.1°C 36.6°F2.6°C 96% 1.0 mph NE1.6 kmh NE 4.0 mph6.4 kmh 30.00 in1015.9 mb 0.10 in2.5 mm 0.20 in5.1 mm 0.42 in10.7 mm
03:00 PM 37.4°F3.0°C 36.1°F2.3°C 95% 3.0 mph NE4.8 kmh NE 3.0 mph4.8 kmh 30.00 in1015.9 mb 0.05 in1.3 mm 0.03 in0.8 mm 0.37 in9.4 mm
02:45 PM 37.4°F3.0°C 36.1°F2.3°C 95% 1.0 mph ENE1.6 kmh ENE 5.0 mph8.0 kmh 30.02 in1016.6 mb 0.03 in0.8 mm 0.00 in0.0 mm 0.35 in8.9 mm
02:30 PM 37.5°F3.1°C 36.2°F2.3°C 95% 1.0 mph ENE1.6 kmh ENE 5.0 mph8.0 kmh 30.03 in1016.9 mb 0.05 in1.3 mm 0.00 in0.0 mm 0.35 in8.9 mm
02:15 PM 37.6°F3.1°C 36.0°F2.2°C 94% 4.0 mph ENE6.4 kmh ENE 7.0 mph11.3 kmh 30.03 in1016.9 mb 0.05 in1.3 mm 0.04 in1.0 mm 0.35 in8.9 mm
02:00 PM 37.8°F3.2°C 36.2°F2.3°C 94% 8.0 mph NE12.9 kmh NE 10.0 mph16.1 kmh 30.05 in1017.6 mb 0.04 in1.0 mm 0.00 in0.0 mm 0.34 in8.6 mm
01:45 PM 38.4°F3.6°C 36.3°F2.4°C 92% 1.0 mph E1.6 kmh E 5.0 mph8.0 kmh 30.03 in1016.9 mb 0.04 in1.0 mm 0.08 in2.0 mm 0.34 in8.6 mm
01:30 PM 38.6°F3.7°C 36.2°F2.3°C 91% Calm Calm 7.0 mph11.3 kmh 30.03 in1016.9 mb 0.02 in0.5 mm 0.08 in2.0 mm 0.32 in8.1 mm
01:15 PM 38.5°F3.6°C 35.8°F2.1°C 90% 1.0 mph E1.6 kmh E 9.0 mph14.5 kmh 30.05 in1017.6 mb 0.00 in0.0 mm 0.00 in0.0 mm 0.30 in7.6 mm
01:00 PM 38.6°F3.7°C 35.9°F2.2°C 90% 5.0 mph E8.0 kmh E 9.0 mph14.5 kmh 30.06 in1017.9 mb 0.00 in0.0 mm 0.00 in0.0 mm 0.30 in7.6 mm
12:45 PM 39.1°F3.9°C 36.1°F2.3°C 89% 13.0 mph E20.9 kmh E 13.0 mph20.9 kmh 30.07 in1018.3 mb 0.00 in0.0 mm 0.00 in0.0 mm 0.30 in7.6 mm
12:30 PM 39.2°F4.0°C 36.2°F2.3°C 89% 5.0 mph E8.0 kmh E 8.0 mph12.9 kmh 30.07 in1018.3 mb 0.00 in0.0 mm 0.00 in0.0 mm 0.30 in7.6 mm
12:15 PM 39.7°F4.3°C 36.4°F2.4°C 88% 2.0 mph E3.2 kmh E 7.0 mph11.3 kmh 30.06 in1017.9 mb 0.00 in0.0 mm 0.00 in0.0 mm 0.30 in7.6 mm
12:00 PM 39.5°F4.2°C 36.3°F2.4°C 88% 2.0 mph NE3.2 kmh NE 6.0 mph9.7 kmh 30.07 in1018.3 mb 0.00 in0.0 mm 0.00 in0.0 mm 0.30 in7.6 mm
11:45 AM 39.5°F4.2°C 36.5°F2.5°C 89% 4.0 mph ENE6.4 kmh ENE 8.0 mph12.9 kmh 30.08 in1018.6 mb 0.00 in0.0 mm 0.00 in0.0 mm 0.30 in7.6 mm
11:30 AM 39.2°F4.0°C 36.0°F2.2°C 88% 3.0 mph E4.8 kmh E 11.0 mph17.7 kmh 30.08 in1018.6 mb 0.00 in0.0 mm 0.00 in0.0 mm 0.30 in7.6 mm
11:15 AM 39.6°F4.2°C 36.6°F2.6°C 89% 7.0 mph ENE11.3 kmh ENE 7.0 mph11.3 kmh 30.09 in1019.0 mb 0.00 in0.0 mm 0.00 in0.0 mm 0.30 in7.6 mm
11:00 AM 39.4°F4.1°C 36.4°F2.4°C 89% 2.0 mph ENE3.2 kmh ENE 5.0 mph8.0 kmh 30.10 in1019.3 mb 0.00 in0.0 mm 0.00 in0.0 mm 0.30 in7.6 mm
10:45 AM 39.0°F3.9°C 36.3°F2.4°C 90% 1.0 mph ENE1.6 kmh ENE 6.0 mph9.7 kmh 30.09 in1019.0 mb 0.00 in0.0 mm 0.00 in0.0 mm 0.30 in7.6 mm
10:30 AM 38.5°F3.6°C 35.8°F2.1°C 90% 4.0 mph ENE6.4 kmh ENE 7.0 mph11.3 kmh 30.10 in1019.3 mb 0.00 in0.0 mm 0.00 in0.0 mm 0.30 in7.6 mm
10:15 AM 37.9°F3.3°C 35.5°F1.9°C 91% Calm Calm 5.0 mph8.0 kmh 30.10 in1019.3 mb 0.00 in0.0 mm 0.00 in0.0 mm 0.30 in7.6 mm
10:00 AM 37.5°F3.1°C 35.7°F2.1°C 93% 2.0 mph ENE3.2 kmh ENE 5.0 mph8.0 kmh 30.11 in1019.6 mb 0.20 in5.1 mm 0.00 in0.0 mm 0.30 in7.6 mm
09:45 AM 36.9°F2.7°C 34.8°F1.6°C 92% 2.0 mph NE3.2 kmh NE 6.0 mph9.7 kmh 30.11 in1019.6 mb 0.20 in5.1 mm 0.00 in0.0 mm 0.30 in7.6 mm
09:30 AM 36.6°F2.6°C 34.5°F1.4°C 92% Calm Calm 8.0 mph12.9 kmh 30.12 in1020.0 mb 0.20 in5.1 mm 0.00 in0.0 mm 0.30 in7.6 mm
09:15 AM 36.4°F2.4°C 34.6°F1.4°C 93% 7.0 mph E11.3 kmh E 7.0 mph11.3 kmh 30.11 in1019.6 mb 0.20 in5.1 mm 0.00 in0.0 mm 0.30 in7.6 mm
09:00 AM 36.2°F2.3°C 34.4°F1.3°C 93% 5.0 mph ENE8.0 kmh ENE 5.0 mph8.0 kmh 30.12 in1020.0 mb 0.20 in5.1 mm 0.27 in6.9 mm 0.30 in7.6 mm
08:45 AM 36.0°F2.2°C 34.4°F1.3°C 94% 2.0 mph ENE3.2 kmh ENE 7.0 mph11.3 kmh 30.12 in1020.0 mb 0.00 in0.0 mm 0.00 in0.0 mm 0.10 in2.5 mm
08:30 AM 35.7°F2.1°C 34.2°F1.2°C 94% 1.0 mph NE1.6 kmh NE 7.0 mph11.3 kmh 30.13 in1020.3 mb 0.00 in0.0 mm 0.00 in0.0 mm 0.10 in2.5 mm
08:15 AM 35.7°F2.1°C 34.2°F1.2°C 94% 4.0 mph ENE6.4 kmh ENE 5.0 mph8.0 kmh 30.13 in1020.3 mb 0.00 in0.0 mm 0.00 in0.0 mm 0.10 in2.5 mm
08:00 AM 35.6°F2.0°C 34.1°F1.2°C 94% 2.0 mph ENE3.2 kmh ENE 5.0 mph8.0 kmh 30.13 in1020.3 mb 0.00 in0.0 mm 0.00 in0.0 mm 0.10 in2.5 mm
07:45 AM 35.6°F2.0°C 34.1°F1.2°C 94% 3.0 mph NE4.8 kmh NE 5.0 mph8.0 kmh 30.14 in1020.7 mb 0.00 in0.0 mm 0.00 in0.0 mm 0.10 in2.5 mm
07:30 AM 35.5°F1.9°C 34.2°F1.2°C 95% 3.0 mph E4.8 kmh E 7.0 mph11.3 kmh 30.14 in1020.7 mb 0.00 in0.0 mm 0.00 in0.0 mm 0.10 in2.5 mm
07:15 AM 35.5°F1.9°C 34.2°F1.2°C 95% 3.0 mph ENE4.8 kmh ENE 6.0 mph9.7 kmh 30.14 in1020.7 mb 0.00 in0.0 mm 0.00 in0.0 mm 0.10 in2.5 mm
07:00 AM 35.5°F1.9°C 34.2°F1.2°C 95% 4.0 mph ENE6.4 kmh ENE 7.0 mph11.3 kmh 30.15 in1021.0 mb 0.00 in0.0 mm 0.00 in0.0 mm 0.10 in2.5 mm
06:45 AM 35.5°F1.9°C 34.2°F1.2°C 95% 3.0 mph E4.8 kmh E 7.0 mph11.3 kmh 30.16 in1021.3 mb 0.00 in0.0 mm 0.00 in0.0 mm 0.10 in2.5 mm
06:30 AM 35.6°F2.0°C 34.3°F1.3°C 95% Calm Calm 10.0 mph16.1 kmh 30.16 in1021.3 mb 0.00 in0.0 mm 0.00 in0.0 mm 0.10 in2.5 mm
06:15 AM 36.2°F2.3°C 35.4°F1.9°C 97% 7.0 mph SSE11.3 kmh SSE 11.0 mph17.7 kmh 30.17 in1021.7 mb 0.00 in0.0 mm 0.00 in0.0 mm 0.10 in2.5 mm
06:00 AM 36.3°F2.4°C 35.5°F1.9°C 97% 7.0 mph SSE11.3 kmh SSE 10.0 mph16.1 kmh 30.17 in1021.7 mb 0.00 in0.0 mm 0.00 in0.0 mm 0.10 in2.5 mm
05:45 AM 36.3°F2.4°C 35.5°F1.9°C 97% 6.0 mph N9.7 kmh N 14.0 mph22.5 kmh 30.18 in1022.0 mb 0.00 in0.0 mm 0.00 in0.0 mm 0.10 in2.5 mm
05:30 AM 36.4°F2.4°C 35.1°F1.7°C 95% 3.0 mph E4.8 kmh E 7.0 mph11.3 kmh 30.18 in1022.0 mb 0.00 in0.0 mm 0.00 in0.0 mm 0.10 in2.5 mm
05:15 AM 35.8°F2.1°C 34.5°F1.4°C 95% Calm Calm 5.0 mph8.0 kmh 30.19 in1022.4 mb 0.00 in0.0 mm 0.00 in0.0 mm 0.10 in2.5 mm
05:00 AM 35.8°F2.1°C 34.5°F1.4°C 95% 1.0 mph ENE1.6 kmh ENE 7.0 mph11.3 kmh 30.18 in1022.0 mb 0.00 in0.0 mm 0.00 in0.0 mm 0.10 in2.5 mm
04:45 AM 35.8°F2.1°C 34.8°F1.6°C 96% 3.0 mph ENE4.8 kmh ENE 4.0 mph6.4 kmh 30.19 in1022.4 mb 0.00 in0.0 mm 0.00 in0.0 mm 0.10 in2.5 mm
04:30 AM 35.7°F2.1°C 34.4°F1.3°C 95% 2.0 mph NE3.2 kmh NE 5.0 mph8.0 kmh 30.20 in1022.7 mb 0.00 in0.0 mm 0.00 in0.0 mm 0.10 in2.5 mm
04:15 AM 35.7°F2.1°C 34.7°F1.5°C 96% 3.0 mph NE4.8 kmh NE 7.0 mph11.3 kmh 30.20 in1022.7 mb 0.00 in0.0 mm 0.00 in0.0 mm 0.10 in2.5 mm
04:00 AM 35.7°F2.1°C 34.7°F1.5°C 96% 4.0 mph N6.4 kmh N 8.0 mph12.9 kmh 30.20 in1022.7 mb 0.07 in1.8 mm 0.00 in0.0 mm 0.10 in2.5 mm
03:45 AM 35.7°F2.1°C 34.7°F1.5°C 96% 5.0 mph ENE8.0 kmh ENE 7.0 mph11.3 kmh 30.20 in1022.7 mb 0.07 in1.8 mm 0.00 in0.0 mm 0.10 in2.5 mm
03:30 AM 35.6°F2.0°C 34.6°F1.4°C 96% 5.0 mph E8.0 kmh E 9.0 mph14.5 kmh 30.21 in1023.0 mb 0.09 in2.3 mm 0.00 in0.0 mm 0.10 in2.5 mm
03:15 AM 35.6°F2.0°C 34.6°F1.4°C 96% 2.0 mph N3.2 kmh N 8.0 mph12.9 kmh 30.24 in1024.0 mb 0.09 in2.3 mm 0.00 in0.0 mm 0.10 in2.5 mm
03:00 AM 35.6°F2.0°C 34.6°F1.4°C 96% 1.0 mph NE1.6 kmh NE 7.0 mph11.3 kmh 30.23 in1023.7 mb 0.10 in2.5 mm 0.01 in0.3 mm 0.10 in2.5 mm
02:45 AM 35.6°F2.0°C 34.3°F1.3°C 95% 1.0 mph ESE1.6 kmh ESE 5.0 mph8.0 kmh 30.24 in1024.0 mb 0.09 in2.3 mm 0.24 in6.1 mm 0.09 in2.3 mm
02:30 AM 35.7°F2.1°C 34.4°F1.3°C 95% 7.0 mph ENE11.3 kmh ENE 7.0 mph11.3 kmh 30.26 in1024.7 mb 0.03 in0.8 mm 0.04 in1.0 mm 0.03 in0.8 mm
02:15 AM 35.5°F1.9°C 34.2°F1.2°C 95% Calm Calm 8.0 mph12.9 kmh 30.25 in1024.4 mb 0.02 in0.5 mm 0.04 in1.0 mm 0.02 in0.5 mm
02:00 AM 35.5°F1.9°C 34.2°F1.2°C 95% 1.0 mph NE1.6 kmh NE 9.0 mph14.5 kmh 30.25 in1024.4 mb 0.01 in0.3 mm 0.01 in0.3 mm 0.01 in0.3 mm
01:45 AM 35.5°F1.9°C 34.2°F1.2°C 95% 4.0 mph E6.4 kmh E 8.0 mph12.9 kmh 30.26 in1024.7 mb 0.00 in0.0 mm 0.00 in0.0 mm 0.00 in0.0 mm
01:30 AM 36.1°F2.3°C 35.1°F1.7°C 96% 8.0 mph S12.9 kmh S 12.0 mph19.3 kmh 30.27 in1025.1 mb 0.00 in0.0 mm 0.00 in0.0 mm 0.00 in0.0 mm
01:15 AM 36.0°F2.2°C 35.0°F1.7°C 96% 3.0 mph NNE4.8 kmh NNE 12.0 mph19.3 kmh 30.27 in1025.1 mb 0.00 in0.0 mm 0.00 in0.0 mm 0.00 in0.0 mm
01:00 AM 36.0°F2.2°C 35.0°F1.7°C 96% 3.0 mph W4.8 kmh W 12.0 mph19.3 kmh 30.29 in1025.7 mb 0.00 in0.0 mm 0.00 in0.0 mm 0.00 in0.0 mm
12:45 AM 35.2°F1.8°C 33.9°F1.1°C 95% 4.0 mph NE6.4 kmh NE 10.0 mph16.1 kmh 30.27 in1025.1 mb 0.00 in0.0 mm 0.00 in0.0 mm 0.00 in0.0 mm
12:30 AM 35.1°F1.7°C 33.8°F1.0°C 95% 3.0 mph NE4.8 kmh NE 7.0 mph11.3 kmh 30.29 in1025.7 mb 0.00 in0.0 mm 0.00 in0.0 mm 0.00 in0.0 mm
12:15 AM 35.0°F1.7°C 33.7°F0.9°C 95% 1.0 mph E1.6 kmh E 8.0 mph12.9 kmh 30.29 in1025.7 mb 0.00 in0.0 mm 0.00 in0.0 mm 0.00 in0.0 mm
12:00 AM 35.0°F1.7°C 33.7°F0.9°C 95% 3.0 mph ENE4.8 kmh ENE 12.0 mph19.3 kmh 30.30 in1026.1 mb 0.00 in0.0 mm 0.00 in0.0 mm 0.00 in0.0 mm